createdAt,value
2023-03-01T00:01:54.817Z,-3.94
2023-03-01T00:04:28.916Z,-3.93
2023-03-01T00:06:57.552Z,-3.94
2023-03-01T00:09:26.942Z,-3.97
2023-03-01T00:11:55.349Z,-3.99
2023-03-01T00:14:24.947Z,-4.01
2023-03-01T00:16:54.422Z,-4.02
2023-03-01T00:19:23.386Z,-4.03
2023-03-01T00:21:51.838Z,-4.03
2023-03-01T00:24:20.774Z,-4.03
2023-03-01T00:26:49.380Z,-4.03
2023-03-01T00:29:18.341Z,-4.03
2023-03-01T00:31:46.822Z,-4.03
2023-03-01T00:34:19.091Z,-4.04
2023-03-01T00:36:47.332Z,-4.06
2023-03-01T00:39:16.005Z,-4.07
2023-03-01T00:41:45.768Z,-4.09
2023-03-01T00:44:16.583Z,-4.11
2023-03-01T00:46:44.623Z,-4.13
2023-03-01T00:49:13.466Z,-4.14
2023-03-01T00:51:42.930Z,-4.14
2023-03-01T00:54:11.577Z,-4.15
2023-03-01T00:56:41.585Z,-4.18
2023-03-01T00:59:11.789Z,-4.19
2023-03-01T01:01:42.106Z,-4.21
2023-03-01T01:04:12.431Z,-4.21
2023-03-01T01:06:46.940Z,-4.23
2023-03-01T01:09:20.511Z,-4.24
2023-03-01T01:11:52.432Z,-4.27
2023-03-01T01:14:21.103Z,-4.29
2023-03-01T01:16:50.225Z,-4.31
2023-03-01T01:19:22.444Z,-4.33
2023-03-01T01:21:51.852Z,-4.34
2023-03-01T01:24:20.438Z,-4.34
2023-03-01T01:26:49.589Z,-4.37
2023-03-01T01:29:17.748Z,-4.38
2023-03-01T01:31:46.383Z,-4.39
2023-03-01T01:34:20.436Z,-4.41
2023-03-01T01:36:54.245Z,-4.42
2023-03-01T01:39:23.043Z,-4.42
2023-03-01T01:41:51.507Z,-4.44
2023-03-01T01:44:21.448Z,-4.44
2023-03-01T01:46:50.748Z,-4.46
2023-03-01T01:49:25.306Z,-4.47
2023-03-01T01:52:05.281Z,-4.49
2023-03-01T01:55:04.876Z,-4.50
2023-03-01T01:57:55.585Z,-4.51
2023-03-01T02:00:29.481Z,-4.53
2023-03-01T02:03:12.706Z,-4.55
2023-03-01T02:05:55.687Z,-4.56
2023-03-01T02:08:27.963Z,-4.57
2023-03-01T02:11:05.486Z,-4.59
2023-03-01T02:13:39.854Z,-4.59
2023-03-01T02:16:13.797Z,-4.60
2023-03-01T02:18:42.892Z,-4.62
2023-03-01T02:21:18.944Z,-4.63
2023-03-01T02:23:51.057Z,-4.64
2023-03-01T02:26:43.945Z,-4.65
2023-03-01T02:29:12.616Z,-4.66
2023-03-01T02:31:44.207Z,-4.67
2023-03-01T02:34:22.540Z,-4.69
2023-03-01T02:37:05.800Z,-4.71
2023-03-01T02:39:49.152Z,-4.74
2023-03-01T02:42:27.506Z,-4.76
2023-03-01T02:44:59.550Z,-4.77
2023-03-01T02:47:28.731Z,-4.79
2023-03-01T02:49:57.205Z,-4.83
2023-03-01T02:52:36.144Z,-4.86
2023-03-01T02:55:13.042Z,-4.91
2023-03-01T02:57:44.418Z,-4.94
2023-03-01T03:00:22.426Z,-4.96
2023-03-01T03:02:53.395Z,-4.97
2023-03-01T03:05:28.251Z,-4.98
2023-03-01T03:08:01.431Z,-4.98
2023-03-01T03:10:33.874Z,-4.99
2023-03-01T03:13:08.291Z,-5.01
2023-03-01T03:15:39.832Z,-5.03
2023-03-01T03:18:12.082Z,-5.05
2023-03-01T03:20:41.555Z,-5.07
2023-03-01T03:23:12.945Z,-5.07
2023-03-01T03:25:43.333Z,-5.08
2023-03-01T03:28:12.849Z,-5.10
2023-03-01T03:30:42.119Z,-5.11
2023-03-01T03:33:13.417Z,-5.11
2023-03-01T03:35:47.694Z,-5.12
2023-03-01T03:38:18.114Z,-5.11
2023-03-01T03:40:52.430Z,-5.10
2023-03-01T03:43:22.869Z,-5.10
2023-03-01T03:45:52.111Z,-5.11
2023-03-01T03:48:21.661Z,-5.12
2023-03-01T03:50:55.018Z,-5.13
2023-03-01T03:53:24.980Z,-5.14
2023-03-01T03:55:53.973Z,-5.16
2023-03-01T03:58:23.699Z,-5.16
2023-03-01T04:00:57.501Z,-5.18
2023-03-01T04:03:27.828Z,-5.18
2023-03-01T04:06:00.860Z,-5.19
2023-03-01T04:08:30.692Z,-5.20
2023-03-01T04:11:21.659Z,-5.20
2023-03-01T04:13:51.223Z,-5.20
2023-03-01T04:16:20.621Z,-5.19
2023-03-01T04:18:49.339Z,-5.20
2023-03-01T04:21:17.906Z,-5.21
2023-03-01T04:23:46.566Z,-5.23
2023-03-01T04:26:15.960Z,-5.25
2023-03-01T04:28:46.487Z,-5.26
2023-03-01T04:31:18.708Z,-5.26
2023-03-01T04:33:55.250Z,-5.26
2023-03-01T04:36:27.772Z,-5.26
2023-03-01T04:38:56.529Z,-5.24
2023-03-01T04:41:25.207Z,-5.23
2023-03-01T04:43:54.227Z,-5.22
2023-03-01T04:46:23.300Z,-5.20
2023-03-01T04:48:56.237Z,-5.19
2023-03-01T04:51:24.961Z,-5.17
2023-03-01T04:53:54.526Z,-5.15
2023-03-01T04:56:24.287Z,-5.12
2023-03-01T04:58:54.773Z,-5.08
2023-03-01T05:01:23.426Z,-5.06
2023-03-01T05:03:52.430Z,-5.03
2023-03-01T05:06:21.445Z,-4.99
2023-03-01T05:08:50.038Z,-4.94
2023-03-01T05:11:24.156Z,-4.90
2023-03-01T05:13:56.196Z,-4.85
2023-03-01T05:16:24.698Z,-4.78
2023-03-01T05:18:56.809Z,-4.73
2023-03-01T05:21:25.704Z,-4.68
2023-03-01T05:23:59.597Z,-4.62
2023-03-01T05:26:29.938Z,-4.55
2023-03-01T05:29:00.730Z,-4.47
2023-03-01T05:31:32.033Z,-4.39
2023-03-01T05:34:00.933Z,-4.31
2023-03-01T05:36:30.741Z,-4.23
2023-03-01T05:38:59.490Z,-4.13
2023-03-01T05:41:29.191Z,-4.03
2023-03-01T05:43:58.177Z,-3.90
2023-03-01T05:46:30.865Z,-3.80
2023-03-01T05:49:01.321Z,-3.70
2023-03-01T05:51:30.596Z,-3.61
2023-03-01T05:53:59.176Z,-3.52
2023-03-01T05:56:27.953Z,-3.45
2023-03-01T05:58:56.925Z,-3.35
2023-03-01T06:01:25.633Z,-3.26
2023-03-01T06:03:54.632Z,-3.17
2023-03-01T06:06:23.842Z,-3.07
2023-03-01T06:08:52.956Z,-2.98
2023-03-01T06:11:22.183Z,-2.85
2023-03-01T06:13:50.909Z,-2.74
2023-03-01T06:16:23.744Z,-2.66
2023-03-01T06:18:52.482Z,-2.61
2023-03-01T06:21:21.190Z,-2.54
2023-03-01T06:23:50.087Z,-2.45
2023-03-01T06:26:18.946Z,-2.35
2023-03-01T06:28:47.360Z,-2.26
2023-03-01T06:31:19.133Z,-2.15
2023-03-01T06:33:47.829Z,-2.04
2023-03-01T06:36:19.843Z,-1.92
2023-03-01T06:38:49.378Z,-1.83
2023-03-01T06:41:17.967Z,-1.76
2023-03-01T06:43:46.774Z,-1.67
2023-03-01T06:46:15.524Z,-1.57
2023-03-01T06:48:44.215Z,-1.46
2023-03-01T06:51:13.008Z,-1.41
2023-03-01T06:53:42.724Z,-1.33
2023-03-01T06:56:11.348Z,-1.19
2023-03-01T06:58:40.259Z,-1.11
2023-03-01T07:01:09.419Z,-1.01
2023-03-01T07:03:38.092Z,-0.89
2023-03-01T07:06:07.162Z,-0.76
2023-03-01T07:08:36.104Z,-0.71
2023-03-01T07:11:05.448Z,-0.65
2023-03-01T07:13:36.450Z,-0.54
2023-03-01T07:16:06.676Z,-0.44
2023-03-01T07:18:35.310Z,-0.36
2023-03-01T07:21:09.328Z,-0.29
2023-03-01T07:23:40.667Z,-0.22
2023-03-01T07:26:09.506Z,-0.14
2023-03-01T07:28:40.312Z,-0.02
2023-03-01T07:31:09.002Z,0.09
2023-03-01T07:33:38.801Z,0.15
2023-03-01T07:36:07.875Z,0.26
2023-03-01T07:38:38.078Z,0.44
2023-03-01T07:41:07.460Z,0.63
2023-03-01T07:43:36.513Z,0.84
2023-03-01T07:46:07.257Z,1.02
2023-03-01T07:48:36.934Z,1.14
2023-03-01T07:51:06.399Z,1.15
2023-03-01T07:53:37.418Z,1.15
2023-03-01T07:56:07.626Z,1.24
2023-03-01T07:58:37.079Z,1.37
2023-03-01T08:01:10.064Z,1.48
2023-03-01T08:03:39.237Z,1.60
2023-03-01T08:06:09.172Z,1.79
2023-03-01T08:08:38.546Z,1.90
2023-03-01T08:11:11.694Z,2.01
2023-03-01T08:14:01.086Z,2.15
2023-03-01T08:16:34.754Z,2.24
2023-03-01T08:19:06.627Z,2.32
2023-03-01T08:21:38.283Z,2.42
2023-03-01T08:24:07.880Z,2.47
2023-03-01T08:26:38.345Z,2.58
2023-03-01T08:29:07.378Z,2.73
2023-03-01T08:31:38.642Z,2.87
2023-03-01T08:34:09.658Z,3.01
2023-03-01T08:36:42.748Z,3.13
2023-03-01T08:39:13.159Z,3.26
2023-03-01T08:41:43.561Z,3.45
2023-03-01T08:44:13.085Z,3.51
2023-03-01T08:46:45.704Z,3.50
2023-03-01T08:49:16.220Z,3.49
2023-03-01T08:51:45.631Z,3.52
2023-03-01T08:54:16.921Z,3.58
2023-03-01T08:56:45.792Z,3.63
2023-03-01T08:59:16.829Z,3.63
2023-03-01T09:01:45.542Z,3.59
2023-03-01T09:04:15.425Z,3.51
2023-03-01T09:06:44.110Z,3.47
2023-03-01T09:09:16.711Z,3.41
2023-03-01T09:11:47.551Z,3.40
2023-03-01T09:14:20.154Z,3.30
2023-03-01T09:16:50.001Z,3.15
2023-03-01T09:19:18.725Z,2.99
2023-03-01T09:21:54.895Z,2.96
2023-03-01T09:24:24.510Z,3.06
2023-03-01T09:26:57.297Z,3.18
2023-03-01T09:29:27.169Z,3.30
2023-03-01T09:31:56.529Z,3.40
2023-03-01T09:34:25.557Z,3.50
2023-03-01T09:36:53.623Z,3.54
2023-03-01T09:39:22.023Z,3.52
2023-03-01T09:42:03.495Z,3.60
2023-03-01T09:44:47.765Z,3.79
2023-03-01T09:47:24.382Z,3.94
2023-03-01T09:50:13.209Z,4.15
2023-03-01T09:52:52.575Z,4.38
2023-03-01T09:55:28.928Z,4.50
2023-03-01T09:58:03.672Z,4.50
2023-03-01T10:00:43.908Z,4.45
2023-03-01T10:03:39.046Z,4.41
2023-03-01T10:06:27.343Z,4.37
2023-03-01T10:09:16.133Z,4.39
2023-03-01T10:11:51.321Z,4.40
2023-03-01T10:14:40.650Z,4.47
2023-03-01T10:17:28.883Z,4.51
2023-03-01T10:19:59.003Z,4.51
2023-03-01T10:22:29.580Z,4.61
2023-03-01T10:25:00.683Z,4.82
2023-03-01T10:27:53.138Z,4.91
2023-03-01T10:30:45.100Z,4.98
2023-03-01T10:33:22.646Z,5.22
2023-03-01T10:35:55.322Z,5.57
2023-03-01T10:38:24.194Z,5.79
2023-03-01T10:40:59.841Z,6.02
2023-03-01T10:43:42.132Z,6.04
2023-03-01T10:46:37.606Z,5.95
2023-03-01T10:49:20.705Z,5.90
2023-03-01T10:51:51.499Z,5.86
2023-03-01T10:54:29.384Z,5.86
2023-03-01T10:57:02.674Z,5.81
2023-03-01T10:59:35.941Z,5.69
2023-03-01T11:02:23.550Z,5.48
2023-03-01T11:04:58.159Z,5.46
2023-03-01T11:07:26.672Z,5.41
2023-03-01T11:10:12.613Z,5.31
2023-03-01T11:12:41.869Z,5.34
2023-03-01T11:15:29.387Z,5.41
2023-03-01T11:18:08.910Z,5.36
2023-03-01T11:20:41.759Z,5.17
2023-03-01T11:23:12.647Z,5.06
2023-03-01T11:25:50.549Z,4.94
2023-03-01T11:28:19.323Z,4.71
2023-03-01T11:31:13.509Z,4.45
2023-03-01T11:34:01.061Z,4.38
2023-03-01T11:36:42.841Z,4.51
2023-03-01T11:39:19.218Z,4.49
2023-03-01T11:41:50.201Z,4.48
2023-03-01T11:44:29.470Z,4.57
2023-03-01T11:47:21.050Z,4.77
2023-03-01T11:50:02.528Z,5.00
2023-03-01T11:53:02.840Z,5.15
2023-03-01T11:55:34.371Z,5.12
2023-03-01T11:58:22.271Z,5.13
2023-03-01T12:01:15.437Z,5.31
2023-03-01T12:03:59.587Z,5.34
2023-03-01T12:06:36.606Z,5.20
2023-03-01T12:09:18.375Z,5.03
2023-03-01T12:12:13.509Z,4.90
2023-03-01T12:14:50.573Z,4.69
2023-03-01T12:17:37.480Z,4.52
2023-03-01T12:20:33.432Z,4.33
2023-03-01T12:23:20.339Z,4.14
2023-03-01T12:25:53.745Z,3.87
2023-03-01T12:28:28.635Z,3.71
2023-03-01T12:31:29.526Z,3.64
2023-03-01T12:34:05.160Z,3.57
2023-03-01T12:36:49.678Z,3.44
2023-03-01T12:39:37.732Z,3.27
2023-03-01T12:42:30.254Z,3.12
2023-03-01T12:45:32.781Z,2.80
2023-03-01T12:48:13.313Z,2.64
2023-03-01T12:50:44.261Z,2.60
2023-03-01T12:53:36.230Z,2.63
2023-03-01T12:56:11.215Z,2.56
2023-03-01T12:59:06.459Z,2.45
2023-03-01T13:01:56.228Z,2.33
2023-03-01T13:04:30.454Z,2.24
2023-03-01T13:07:01.582Z,2.13
2023-03-01T13:09:36.159Z,2.06
2023-03-01T13:12:13.035Z,2.00
2023-03-01T13:14:48.074Z,1.92
2023-03-01T13:17:31.960Z,1.85
2023-03-01T13:20:00.819Z,1.71
2023-03-01T13:22:34.460Z,1.60
2023-03-01T13:25:16.400Z,1.53
2023-03-01T13:27:46.731Z,1.51
2023-03-01T13:30:39.078Z,1.51
2023-03-01T13:33:28.394Z,1.46
2023-03-01T13:35:58.934Z,1.44
2023-03-01T13:39:08.679Z,1.45
2023-03-01T13:41:44.984Z,1.49
2023-03-01T13:44:37.421Z,1.54
2023-03-01T13:47:14.916Z,1.60
2023-03-01T13:49:51.237Z,1.61
2023-03-01T13:52:41.672Z,1.61
2023-03-01T13:55:17.977Z,1.66
2023-03-01T13:57:56.064Z,1.68
2023-03-01T14:00:32.748Z,1.64
2023-03-01T14:03:19.379Z,1.58
2023-03-01T14:06:17.323Z,1.48
2023-03-01T14:08:49.653Z,1.38
2023-03-01T14:11:40.346Z,1.32
2023-03-01T14:14:48.101Z,1.26
2023-03-01T14:17:33.033Z,1.20
2023-03-01T14:20:05.512Z,1.16
2023-03-01T14:22:35.422Z,1.11
2023-03-01T14:25:18.229Z,1.06
2023-03-01T14:27:53.582Z,1.02
2023-03-01T14:30:27.927Z,1.02
2023-03-01T14:33:02.083Z,0.99
2023-03-01T14:35:32.848Z,0.92
2023-03-01T14:38:02.275Z,0.85
2023-03-01T14:40:36.201Z,0.80
2023-03-01T14:43:11.456Z,0.75
2023-03-01T14:45:48.290Z,0.69
2023-03-01T14:48:17.703Z,0.63
2023-03-01T14:50:46.530Z,0.61
2023-03-01T14:53:26.412Z,0.59
2023-03-01T14:56:03.512Z,0.55
2023-03-01T14:58:37.518Z,0.51
2023-03-01T15:01:06.400Z,0.49
2023-03-01T15:03:36.185Z,0.47
2023-03-01T15:06:06.386Z,0.44
2023-03-01T15:08:35.459Z,0.43
2023-03-01T15:11:14.434Z,0.43
2023-03-01T15:13:43.190Z,0.42
2023-03-01T15:16:21.402Z,0.39
2023-03-01T15:18:52.010Z,0.35
2023-03-01T15:21:25.707Z,0.31
2023-03-01T15:23:56.155Z,0.30
2023-03-01T15:26:26.706Z,0.30
2023-03-01T15:28:59.273Z,0.29
2023-03-01T15:31:36.312Z,0.29
2023-03-01T15:34:25.323Z,0.30
2023-03-01T15:36:54.720Z,0.29
2023-03-01T15:39:32.857Z,0.28
2023-03-01T15:42:02.258Z,0.26
2023-03-01T15:44:42.760Z,0.25
2023-03-01T15:47:31.036Z,0.24
2023-03-01T15:50:00.900Z,0.24
2023-03-01T15:52:40.490Z,0.25
2023-03-01T15:55:18.664Z,0.27
2023-03-01T15:57:48.465Z,0.29
2023-03-01T16:00:18.577Z,0.27
2023-03-01T16:02:47.413Z,0.24
2023-03-01T16:05:23.116Z,0.22
2023-03-01T16:07:52.388Z,0.21
2023-03-01T16:10:23.559Z,0.20
2023-03-01T16:12:54.994Z,0.19
2023-03-01T16:15:25.767Z,0.18
2023-03-01T16:17:55.096Z,0.18
2023-03-01T16:20:29.110Z,0.17
2023-03-01T16:23:01.269Z,0.14
2023-03-01T16:25:30.747Z,0.10
2023-03-01T16:28:01.948Z,0.07
2023-03-01T16:30:31.831Z,0.04
2023-03-01T16:33:00.416Z,0.01
2023-03-01T16:35:30.391Z,-0.03
2023-03-01T16:38:00.894Z,-0.06
2023-03-01T16:40:33.828Z,-0.09
2023-03-01T16:43:02.621Z,-0.12
2023-03-01T16:45:37.805Z,-0.14
2023-03-01T16:48:06.704Z,-0.16
2023-03-01T16:50:35.425Z,-0.18
2023-03-01T16:53:23.773Z,-0.21
2023-03-01T16:55:59.301Z,-0.25
2023-03-01T16:58:28.617Z,-0.29
2023-03-01T17:00:57.957Z,-0.32
2023-03-01T17:03:28.312Z,-0.34
2023-03-01T17:05:57.465Z,-0.34
2023-03-01T17:08:26.688Z,-0.35
2023-03-01T17:10:55.424Z,-0.35
2023-03-01T17:13:27.246Z,-0.37
2023-03-01T17:15:57.332Z,-0.39
2023-03-01T17:18:26.001Z,-0.40
2023-03-01T17:20:54.749Z,-0.39
2023-03-01T17:23:24.788Z,-0.39
2023-03-01T17:25:56.293Z,-0.37
2023-03-01T17:28:26.396Z,-0.35
2023-03-01T17:30:55.186Z,-0.33
2023-03-01T17:33:25.234Z,-0.32
2023-03-01T17:35:54.477Z,-0.31
2023-03-01T17:38:23.379Z,-0.31
2023-03-01T17:40:52.530Z,-0.31
2023-03-01T17:43:26.520Z,-0.34
2023-03-01T17:45:55.773Z,-0.38
2023-03-01T17:48:24.604Z,-0.45
2023-03-01T17:51:13.066Z,-0.53
2023-03-01T17:53:43.168Z,-0.60
2023-03-01T17:56:11.887Z,-0.66
2023-03-01T17:58:40.995Z,-0.71
2023-03-01T18:01:19.254Z,-0.76
2023-03-01T18:03:48.025Z,-0.81
2023-03-01T18:06:18.559Z,-0.86
2023-03-01T18:08:50.862Z,-0.90
2023-03-01T18:11:26.242Z,-0.94
2023-03-01T18:13:55.571Z,-0.98
2023-03-01T18:16:24.442Z,-1.02
2023-03-01T18:18:58.829Z,-1.06
2023-03-01T18:21:29.137Z,-1.09
2023-03-01T18:23:59.782Z,-1.11
2023-03-01T18:26:30.076Z,-1.12
2023-03-01T18:29:01.648Z,-1.11
2023-03-01T18:31:33.774Z,-1.10
2023-03-01T18:34:04.073Z,-1.08
2023-03-01T18:36:35.094Z,-1.06
2023-03-01T18:39:05.733Z,-1.01
2023-03-01T18:41:34.767Z,-0.96
2023-03-01T18:44:04.564Z,-0.91
2023-03-01T18:46:36.270Z,-0.87
2023-03-01T18:49:07.154Z,-0.82
2023-03-01T18:51:37.134Z,-0.78
2023-03-01T18:54:10.169Z,-0.75
2023-03-01T18:56:41.193Z,-0.71
2023-03-01T18:59:10.327Z,-0.68
2023-03-01T19:01:40.421Z,-0.64
2023-03-01T19:04:11.256Z,-0.61
2023-03-01T19:06:40.039Z,-0.59
2023-03-01T19:09:08.847Z,-0.57
2023-03-01T19:11:38.913Z,-0.55
2023-03-01T19:14:08.759Z,-0.53
2023-03-01T19:16:41.232Z,-0.51
2023-03-01T19:19:14.429Z,-0.50
2023-03-01T19:21:47.014Z,-0.50
2023-03-01T19:24:19.767Z,-0.49
2023-03-01T19:26:48.865Z,-0.47
2023-03-01T19:29:19.224Z,-0.46
2023-03-01T19:31:48.302Z,-0.43
2023-03-01T19:34:17.037Z,-0.42
2023-03-01T19:36:48.777Z,-0.42
2023-03-01T19:39:17.622Z,-0.42
2023-03-01T19:41:49.034Z,-0.42
2023-03-01T19:44:19.341Z,-0.42
2023-03-01T19:46:48.827Z,-0.42
2023-03-01T19:49:18.195Z,-0.41
2023-03-01T19:51:47.308Z,-0.41
2023-03-01T19:54:20.371Z,-0.41
2023-03-01T19:56:49.927Z,-0.41
2023-03-01T19:59:24.744Z,-0.40
2023-03-01T20:01:54.511Z,-0.40
2023-03-01T20:04:23.410Z,-0.41
2023-03-01T20:06:53.090Z,-0.42
2023-03-01T20:09:22.698Z,-0.43
2023-03-01T20:11:52.293Z,-0.43
2023-03-01T20:14:27.696Z,-0.42
2023-03-01T20:16:57.823Z,-0.42
2023-03-01T20:19:26.823Z,-0.43
2023-03-01T20:22:03.730Z,-0.44
2023-03-01T20:24:33.977Z,-0.45
2023-03-01T20:27:03.269Z,-0.47
2023-03-01T20:29:32.813Z,-0.47
2023-03-01T20:32:01.791Z,-0.49
2023-03-01T20:34:31.956Z,-0.50
2023-03-01T20:37:00.798Z,-0.51
2023-03-01T20:39:29.925Z,-0.52
2023-03-01T20:41:58.686Z,-0.52
2023-03-01T20:44:28.271Z,-0.52
2023-03-01T20:46:56.986Z,-0.52
2023-03-01T20:49:26.300Z,-0.53
2023-03-01T20:51:54.906Z,-0.55
2023-03-01T20:54:28.061Z,-0.55
2023-03-01T20:56:56.629Z,-0.56
2023-03-01T20:59:25.468Z,-0.56
2023-03-01T21:01:54.810Z,-0.57
2023-03-01T21:04:23.352Z,-0.57
2023-03-01T21:06:51.968Z,-0.58
2023-03-01T21:09:20.783Z,-0.59
2023-03-01T21:11:50.821Z,-0.59
2023-03-01T21:14:19.712Z,-0.60
2023-03-01T21:16:48.317Z,-0.61
2023-03-01T21:19:17.044Z,-0.65
2023-03-01T21:21:46.463Z,-0.67
2023-03-01T21:24:15.678Z,-0.69
2023-03-01T21:26:45.817Z,-0.69
2023-03-01T21:29:14.771Z,-0.70
2023-03-01T21:31:43.671Z,-0.72
2023-03-01T21:34:12.979Z,-0.74
2023-03-01T21:36:42.396Z,-0.76
2023-03-01T21:39:12.082Z,-0.78
2023-03-01T21:41:40.748Z,-0.80
2023-03-01T21:44:09.700Z,-0.81
2023-03-01T21:46:39.505Z,-0.83
2023-03-01T21:49:10.179Z,-0.85
2023-03-01T21:51:38.867Z,-0.87
2023-03-01T21:54:14.661Z,-0.89
2023-03-01T21:56:43.901Z,-0.91
2023-03-01T21:59:23.189Z,-0.92
2023-03-01T22:01:51.669Z,-0.93
2023-03-01T22:04:21.476Z,-0.94
2023-03-01T22:06:54.493Z,-0.96
2023-03-01T22:09:23.446Z,-0.96
2023-03-01T22:11:54.605Z,-0.96
2023-03-01T22:14:22.926Z,-0.96
2023-03-01T22:16:54.125Z,-0.95
2023-03-01T22:19:22.772Z,-0.96
2023-03-01T22:21:52.046Z,-0.96
2023-03-01T22:24:23.626Z,-0.96
2023-03-01T22:26:52.198Z,-0.95
2023-03-01T22:29:29.049Z,-0.95
2023-03-01T22:31:57.972Z,-0.96
2023-03-01T22:34:27.138Z,-0.96
2023-03-01T22:36:56.767Z,-0.96
2023-03-01T22:39:25.191Z,-0.96
2023-03-01T22:41:56.917Z,-0.96
2023-03-01T22:44:26.435Z,-0.95
2023-03-01T22:46:57.885Z,-0.95
2023-03-01T22:49:25.946Z,-0.96
2023-03-01T22:51:54.047Z,-0.96
2023-03-01T22:54:22.158Z,-0.96
2023-03-01T22:56:51.009Z,-0.95
2023-03-01T22:59:22.755Z,-0.94
2023-03-01T23:01:52.384Z,-0.93
2023-03-01T23:04:22.010Z,-0.93
2023-03-01T23:06:50.965Z,-0.96
2023-03-01T23:09:25.744Z,-0.96
2023-03-01T23:11:55.306Z,-0.98
2023-03-01T23:14:31.334Z,-1.01
2023-03-01T23:17:01.883Z,-1.03
2023-03-01T23:19:31.184Z,-1.08
2023-03-01T23:21:59.601Z,-1.13
2023-03-01T23:24:32.125Z,-1.18
2023-03-01T23:27:02.307Z,-1.24
2023-03-01T23:29:31.862Z,-1.30
2023-03-01T23:32:00.616Z,-1.38
2023-03-01T23:34:29.444Z,-1.46
2023-03-01T23:36:58.840Z,-1.53
2023-03-01T23:39:27.870Z,-1.60
2023-03-01T23:41:57.205Z,-1.65
2023-03-01T23:44:27.911Z,-1.71
2023-03-01T23:47:07.773Z,-1.76
2023-03-01T23:49:40.865Z,-1.82
2023-03-01T23:52:13.258Z,-1.88
2023-03-01T23:54:41.840Z,-1.92
2023-03-01T23:57:10.541Z,-1.95
2023-03-01T23:59:41.196Z,-1.98
